createdAt,value
2018-02-10T00:00:53.781Z,21.10
2018-02-10T00:03:20.450Z,19.23
2018-02-10T00:05:47.107Z,21.37
2018-02-10T00:08:13.771Z,18.05
2018-02-10T00:10:40.408Z,17.40
2018-02-10T00:13:07.101Z,18.90
2018-02-10T00:15:33.796Z,17.50
2018-02-10T00:18:00.451Z,16.27
2018-02-10T00:20:27.722Z,17.48
2018-02-10T00:22:54.382Z,16.83
2018-02-10T00:25:21.070Z,17.60
2018-02-10T00:27:47.704Z,16.65
2018-02-10T00:30:14.448Z,18.00
2018-02-10T00:32:41.088Z,18.87
2018-02-10T00:35:07.766Z,16.98
2018-02-10T00:37:35.019Z,19.27
2018-02-10T00:40:01.668Z,20.42
2018-02-10T00:42:28.330Z,20.02
2018-02-10T00:44:54.995Z,20.45
2018-02-10T00:47:25.644Z,22.92
2018-02-10T00:49:52.297Z,25.65
2018-02-10T00:52:18.919Z,28.55
2018-02-10T00:54:45.605Z,28.50
2018-02-10T00:57:12.319Z,23.48
2018-02-10T00:59:38.961Z,21.80
2018-02-10T01:02:05.644Z,21.98
2018-02-10T01:04:32.260Z,22.27
2018-02-10T01:06:58.896Z,20.88
2018-02-10T01:09:25.609Z,21.00
2018-02-10T01:11:52.254Z,21.27
2018-02-10T01:14:18.978Z,22.00
2018-02-10T01:16:45.625Z,20.12
2018-02-10T01:19:12.330Z,21.80
2018-02-10T01:21:39.031Z,21.75
2018-02-10T01:24:05.669Z,22.05
2018-02-10T01:26:33.080Z,19.58
2018-02-10T01:28:59.810Z,20.83
2018-02-10T01:31:26.443Z,21.17
2018-02-10T01:33:53.079Z,23.60
2018-02-10T01:36:20.654Z,25.25
2018-02-10T01:38:47.311Z,22.25
2018-02-10T01:41:13.931Z,22.48
2018-02-10T01:43:40.555Z,22.23
2018-02-10T01:46:07.211Z,21.37
2018-02-10T01:48:33.867Z,19.02
2018-02-10T01:51:00.516Z,22.33
2018-02-10T01:53:27.208Z,17.85
2018-02-10T01:55:54.715Z,21.17
2018-02-10T01:58:22.161Z,21.48
2018-02-10T02:00:48.813Z,18.83
2018-02-10T02:03:15.528Z,22.30
2018-02-10T02:05:42.179Z,20.02
2018-02-10T02:08:08.824Z,20.25
2018-02-10T02:10:35.497Z,17.92
2018-02-10T02:13:02.092Z,16.98
2018-02-10T02:15:29.423Z,15.90
2018-02-10T02:17:56.062Z,18.87
2018-02-10T02:20:22.735Z,16.42
2018-02-10T02:22:53.088Z,18.00
2018-02-10T02:25:23.483Z,16.30
2018-02-10T02:27:50.136Z,16.98
2018-02-10T02:30:16.847Z,16.55
2018-02-10T02:32:43.500Z,16.45
2018-02-10T02:35:10.118Z,16.60
2018-02-10T02:37:36.749Z,16.42
2018-02-10T02:40:03.393Z,18.20
2018-02-10T02:42:30.027Z,17.70
2018-02-10T02:44:56.676Z,17.67
2018-02-10T02:47:23.331Z,18.45
2018-02-10T02:49:49.969Z,17.80
2018-02-10T02:52:17.376Z,18.25
2018-02-10T02:54:44.192Z,16.62
2018-02-10T02:57:10.832Z,19.42
2018-02-10T02:59:37.497Z,19.67
2018-02-10T03:02:04.209Z,18.17
2018-02-10T03:04:30.872Z,17.65
2018-02-10T03:06:57.551Z,17.52
2018-02-10T03:09:24.203Z,19.05
2018-02-10T03:11:51.031Z,16.62
2018-02-10T03:14:17.663Z,18.12
2018-02-10T03:16:45.012Z,19.98
2018-02-10T03:19:11.719Z,17.62
2018-02-10T03:21:38.381Z,18.70
2018-02-10T03:24:09.066Z,18.87
2018-02-10T03:26:35.716Z,16.52
2018-02-10T03:29:02.348Z,18.80
2018-02-10T03:31:29.004Z,18.17
2018-02-10T03:33:55.644Z,17.35
2018-02-10T03:36:26.110Z,18.23
2018-02-10T03:38:53.763Z,17.08
2018-02-10T03:41:20.440Z,17.05
2018-02-10T03:43:47.076Z,17.90
2018-02-10T03:46:13.728Z,16.25
2018-02-10T03:48:40.413Z,17.42
2018-02-10T03:51:07.140Z,18.77
2018-02-10T03:53:34.536Z,17.58
2018-02-10T03:56:01.176Z,18.60
2018-02-10T03:58:27.836Z,16.75
2018-02-10T04:00:54.476Z,17.25
2018-02-10T04:03:21.129Z,19.75
2018-02-10T04:05:47.851Z,16.58
2018-02-10T04:08:14.514Z,17.15
2018-02-10T04:10:41.922Z,16.20
2018-02-10T04:13:08.590Z,16.58
2018-02-10T04:15:35.364Z,16.23
2018-02-10T04:18:01.998Z,16.48
2018-02-10T04:20:28.617Z,16.85
2018-02-10T04:22:55.547Z,16.25
2018-02-10T04:25:22.180Z,17.08
2018-02-10T04:27:48.848Z,17.90
2018-02-10T04:30:15.483Z,15.27
2018-02-10T04:32:42.248Z,16.58
2018-02-10T04:35:08.893Z,17.98
2018-02-10T04:37:35.524Z,16.62
2018-02-10T04:40:02.242Z,18.67
2018-02-10T04:42:28.998Z,16.15
2018-02-10T04:44:55.640Z,17.75
2018-02-10T04:47:22.305Z,17.27
2018-02-10T04:49:49.038Z,16.10
2018-02-10T04:52:15.693Z,17.45
2018-02-10T04:54:42.333Z,16.90
2018-02-10T04:57:09.900Z,16.92
2018-02-10T04:59:40.852Z,17.12
2018-02-10T05:02:07.853Z,15.32
2018-02-10T05:04:34.507Z,19.12
2018-02-10T05:07:01.156Z,15.98
2018-02-10T05:09:28.739Z,18.02
2018-02-10T05:11:55.388Z,16.50
2018-02-10T05:14:30.207Z,16.48
2018-02-10T05:16:56.878Z,16.85
2018-02-10T05:19:23.565Z,16.80
2018-02-10T05:21:50.412Z,16.05
2018-02-10T05:24:17.139Z,18.05
2018-02-10T05:26:44.666Z,16.85
2018-02-10T05:29:13.158Z,17.65
2018-02-10T05:31:39.795Z,17.10
2018-02-10T05:34:06.612Z,18.55
2018-02-10T05:36:33.704Z,16.00
2018-02-10T05:39:00.457Z,17.60
2018-02-10T05:41:27.096Z,17.05
2018-02-10T05:43:53.859Z,17.15
2018-02-10T05:46:20.509Z,16.27
2018-02-10T05:48:47.138Z,20.35
2018-02-10T05:51:13.781Z,16.52
2018-02-10T05:53:40.421Z,17.73
2018-02-10T05:56:07.134Z,18.15
2018-02-10T05:58:33.773Z,16.08
2018-02-10T06:01:00.420Z,16.42
2018-02-10T06:03:27.092Z,16.70
2018-02-10T06:05:53.756Z,17.77
2018-02-10T06:08:20.431Z,17.95
2018-02-10T06:10:47.942Z,19.45
2018-02-10T06:13:14.602Z,18.77
2018-02-10T06:15:41.373Z,18.25
2018-02-10T06:18:08.232Z,18.25
2018-02-10T06:20:35.000Z,17.83
2018-02-10T06:23:01.695Z,18.65
2018-02-10T06:25:32.731Z,18.42
2018-02-10T06:27:59.372Z,17.48
2018-02-10T06:30:26.053Z,19.73
2018-02-10T06:32:52.751Z,18.58
2018-02-10T06:35:19.399Z,18.02
2018-02-10T06:37:46.039Z,18.60
2018-02-10T06:40:12.749Z,19.42
2018-02-10T06:42:44.316Z,19.30
2018-02-10T06:45:10.981Z,19.85
2018-02-10T06:47:37.683Z,20.95
2018-02-10T06:50:04.374Z,19.35
2018-02-10T06:52:31.019Z,20.27
2018-02-10T06:54:57.728Z,21.83
2018-02-10T06:57:25.017Z,20.62
2018-02-10T06:59:51.655Z,20.62
2018-02-10T07:02:18.309Z,22.25
2018-02-10T07:04:45.417Z,21.40
2018-02-10T07:07:12.095Z,21.17
2018-02-10T07:09:38.762Z,20.88
2018-02-10T07:12:05.455Z,21.87
2018-02-10T07:14:32.126Z,22.10
2018-02-10T07:16:58.788Z,21.95
2018-02-10T07:19:25.459Z,21.45
2018-02-10T07:21:52.160Z,21.45
2018-02-10T07:24:18.799Z,23.62
2018-02-10T07:26:45.511Z,22.87
2018-02-10T07:29:12.167Z,21.65
2018-02-10T07:31:38.836Z,22.60
2018-02-10T07:34:05.507Z,22.35
2018-02-10T07:36:32.260Z,20.33
2018-02-10T07:38:59.698Z,21.00
2018-02-10T07:41:26.356Z,23.20
2018-02-10T07:43:53.018Z,25.12
2018-02-10T07:46:19.704Z,22.65
2018-02-10T07:48:46.360Z,23.40
2018-02-10T07:51:13.009Z,22.90
2018-02-10T07:53:39.668Z,24.17
2018-02-10T07:56:06.308Z,21.80
2018-02-10T07:58:33.933Z,23.27
2018-02-10T08:01:00.725Z,23.40
2018-02-10T08:03:27.409Z,21.75
2018-02-10T08:05:54.687Z,23.70
2018-02-10T08:08:22.143Z,23.27
2018-02-10T08:10:48.837Z,22.42
2018-02-10T08:13:15.460Z,21.87
2018-02-10T08:15:42.233Z,23.17
2018-02-10T08:18:08.905Z,22.15
2018-02-10T08:20:35.554Z,21.80
2018-02-10T08:23:02.519Z,23.45
2018-02-10T08:25:29.340Z,23.48
2018-02-10T08:27:56.027Z,28.77
2018-02-10T08:30:26.901Z,25.35
2018-02-10T08:32:53.578Z,25.85
2018-02-10T08:35:20.247Z,22.48
2018-02-10T08:37:46.907Z,24.00
2018-02-10T08:40:13.599Z,22.35
2018-02-10T08:42:40.372Z,23.50
2018-02-10T08:45:07.027Z,26.05
2018-02-10T08:47:34.798Z,26.12
2018-02-10T08:50:01.449Z,24.35
2018-02-10T08:52:28.091Z,22.85
2018-02-10T08:54:55.638Z,24.17
2018-02-10T08:57:22.452Z,22.67
2018-02-10T08:59:49.119Z,21.67
2018-02-10T09:02:20.832Z,22.00
2018-02-10T09:04:47.484Z,22.17
2018-02-10T09:07:14.169Z,21.65
2018-02-10T09:09:45.001Z,21.08
2018-02-10T09:12:11.704Z,23.90
2018-02-10T09:14:38.428Z,22.90
2018-02-10T09:17:08.928Z,22.52
2018-02-10T09:19:35.740Z,20.55
2018-02-10T09:22:03.351Z,21.12
2018-02-10T09:24:30.124Z,21.42
2018-02-10T09:26:57.008Z,22.30
2018-02-10T09:29:27.822Z,20.23
2018-02-10T09:31:55.386Z,21.98
2018-02-10T09:34:25.933Z,23.38
2018-02-10T09:36:52.569Z,20.70
2018-02-10T09:39:19.247Z,20.95
2018-02-10T09:41:49.864Z,21.83
2018-02-10T09:44:16.578Z,23.75
2018-02-10T09:46:43.228Z,21.90
2018-02-10T09:49:13.978Z,20.60
2018-02-10T09:51:41.505Z,23.00
2018-02-10T09:54:08.268Z,23.30
2018-02-10T09:56:35.656Z,21.10
2018-02-10T09:59:02.858Z,23.62
2018-02-10T10:01:29.529Z,21.00
2018-02-10T10:04:00.139Z,21.83
2018-02-10T10:06:26.826Z,20.00
2018-02-10T10:08:54.782Z,22.25
2018-02-10T10:11:21.456Z,24.95
2018-02-10T10:13:48.268Z,22.50
2018-02-10T10:16:16.668Z,21.30
2018-02-10T10:18:43.299Z,23.02
2018-02-10T10:21:10.222Z,23.25
2018-02-10T10:23:36.882Z,23.65
2018-02-10T10:26:03.564Z,21.67
2018-02-10T10:28:34.082Z,20.90
2018-02-10T10:31:04.640Z,18.98
2018-02-10T10:33:31.494Z,22.02
2018-02-10T10:35:58.241Z,23.48
2018-02-10T10:38:24.953Z,21.45
2018-02-10T10:40:51.689Z,21.12
2018-02-10T10:43:18.405Z,23.25
2018-02-10T10:45:47.881Z,22.23
2018-02-10T10:48:14.572Z,22.70
2018-02-10T10:50:41.419Z,23.15
2018-02-10T10:53:08.140Z,18.15
2018-02-10T10:55:34.796Z,19.75
2018-02-10T10:58:04.168Z,21.35
2018-02-10T11:00:32.094Z,19.75
2018-02-10T11:02:58.775Z,20.35
2018-02-10T11:05:25.465Z,19.27
2018-02-10T11:07:52.552Z,20.23
2018-02-10T11:10:19.959Z,19.85
2018-02-10T11:12:46.624Z,19.95
2018-02-10T11:15:14.058Z,19.87
2018-02-10T11:17:40.967Z,20.10
2018-02-10T11:20:07.620Z,18.90
2018-02-10T11:22:35.126Z,18.48
2018-02-10T11:25:02.529Z,19.12
2018-02-10T11:27:29.997Z,20.05
2018-02-10T11:29:56.632Z,20.15
2018-02-10T11:32:24.955Z,21.08
2018-02-10T11:34:55.695Z,21.62
2018-02-10T11:37:22.387Z,20.88
2018-02-10T11:39:49.242Z,22.58
2018-02-10T11:42:17.069Z,22.62
2018-02-10T11:44:44.237Z,23.83
2018-02-10T11:47:11.240Z,22.52
2018-02-10T11:49:38.716Z,23.80
2018-02-10T11:52:05.622Z,24.70
2018-02-10T11:54:32.397Z,25.40
2018-02-10T11:56:59.365Z,23.75
2018-02-10T11:59:30.661Z,24.00
2018-02-10T12:01:58.472Z,21.85
2018-02-10T12:04:25.598Z,22.62
2018-02-10T12:06:52.488Z,22.00
2018-02-10T12:09:19.485Z,22.90
2018-02-10T12:11:46.362Z,21.17
2018-02-10T12:14:14.407Z,21.15
2018-02-10T12:16:42.033Z,19.17
2018-02-10T12:19:09.151Z,22.08
2018-02-10T12:21:36.701Z,20.67
2018-02-10T12:24:08.403Z,19.20
2018-02-10T12:26:39.248Z,20.05
2018-02-10T12:29:06.205Z,20.65
2018-02-10T12:31:33.254Z,18.70
2018-02-10T12:34:02.118Z,20.65
2018-02-10T12:36:33.367Z,19.05
2018-02-10T12:39:01.220Z,18.60
2018-02-10T12:41:30.175Z,19.92
2018-02-10T12:44:01.591Z,19.00
2018-02-10T12:46:29.303Z,20.27
2018-02-10T12:49:03.089Z,21.17
2018-02-10T12:51:30.518Z,20.10
2018-02-10T12:54:01.964Z,18.83
2018-02-10T12:56:28.836Z,19.15
2018-02-10T12:58:57.286Z,16.23
2018-02-10T13:01:24.775Z,17.98
2018-02-10T13:03:51.761Z,17.50
2018-02-10T13:06:21.665Z,19.12
2018-02-10T13:08:48.973Z,18.20
2018-02-10T13:11:16.963Z,16.10
2018-02-10T13:13:45.023Z,17.67
2018-02-10T13:16:12.081Z,16.30
2018-02-10T13:18:39.669Z,17.37
2018-02-10T13:21:13.383Z,17.20
2018-02-10T13:23:41.831Z,18.10
2018-02-10T13:26:12.103Z,16.10
2018-02-10T13:28:39.191Z,16.08
2018-02-10T13:31:06.207Z,18.50
2018-02-10T13:33:36.938Z,17.98
2018-02-10T13:36:03.867Z,15.65
2018-02-10T13:38:34.761Z,17.80
2018-02-10T13:41:03.137Z,16.87
2018-02-10T13:43:30.306Z,18.45
2018-02-10T13:45:58.698Z,19.25
2018-02-10T13:48:31.953Z,18.75
2018-02-10T13:50:58.971Z,17.90
2018-02-10T13:53:26.580Z,18.08
2018-02-10T13:55:53.419Z,19.05
2018-02-10T13:58:20.778Z,20.80
2018-02-10T14:00:47.678Z,19.40
2018-02-10T14:03:18.539Z,20.37
2018-02-10T14:05:45.590Z,21.77
2018-02-10T14:08:12.580Z,22.00
2018-02-10T14:10:43.497Z,18.75
2018-02-10T14:13:10.884Z,19.33
2018-02-10T14:15:38.014Z,21.12
2018-02-10T14:18:06.340Z,22.30
2018-02-10T14:20:33.660Z,22.62
2018-02-10T14:23:01.413Z,23.27
2018-02-10T14:25:28.429Z,22.75
2018-02-10T14:27:55.398Z,22.40
2018-02-10T14:30:22.712Z,23.67
2018-02-10T14:32:50.788Z,23.50
2018-02-10T14:35:18.159Z,23.80
2018-02-10T14:37:45.419Z,22.50
2018-02-10T14:40:12.731Z,23.23
2018-02-10T14:42:39.752Z,22.45
2018-02-10T14:45:14.887Z,23.12
2018-02-10T14:47:43.205Z,23.00
2018-02-10T14:50:14.230Z,22.75
2018-02-10T14:52:41.287Z,23.70
2018-02-10T14:55:13.155Z,24.12
2018-02-10T14:57:44.494Z,25.10
2018-02-10T15:00:12.597Z,23.17
2018-02-10T15:02:41.107Z,24.12
2018-02-10T15:05:08.626Z,23.20
2018-02-10T15:07:35.734Z,27.85
2018-02-10T15:10:03.585Z,26.98
2018-02-10T15:12:30.933Z,27.67
2018-02-10T15:14:58.306Z,27.15
2018-02-10T15:17:25.437Z,26.60
2018-02-10T15:19:52.708Z,30.00
2018-02-10T15:22:20.411Z,27.92
2018-02-10T15:24:47.377Z,30.95
2018-02-10T15:27:15.523Z,28.25
2018-02-10T15:29:48.211Z,28.80
2018-02-10T15:32:21.890Z,28.77
2018-02-10T15:34:54.523Z,30.67
2018-02-10T15:37:21.224Z,32.20
2018-02-10T15:39:51.994Z,33.22
2018-02-10T15:42:18.746Z,32.45
2018-02-10T15:44:45.556Z,32.47
2018-02-10T15:47:12.341Z,32.50
2018-02-10T15:49:39.095Z,31.80
2018-02-10T15:52:07.311Z,33.97
2018-02-10T15:54:34.117Z,34.08
2018-02-10T15:57:01.662Z,33.35
2018-02-10T15:59:30.137Z,34.85
2018-02-10T16:02:00.777Z,32.67
2018-02-10T16:04:27.464Z,34.13
2018-02-10T16:06:54.138Z,33.50
2018-02-10T16:09:20.843Z,36.03
2018-02-10T16:11:47.532Z,32.35
2018-02-10T16:14:14.295Z,33.20
2018-02-10T16:16:45.272Z,33.03
2018-02-10T16:19:12.001Z,33.00
2018-02-10T16:21:38.693Z,33.35
2018-02-10T16:24:05.513Z,32.08
2018-02-10T16:26:32.904Z,35.13
2018-02-10T16:29:03.520Z,33.67
2018-02-10T16:31:31.013Z,30.35
2018-02-10T16:34:00.598Z,33.30
2018-02-10T16:36:28.164Z,30.90
2018-02-10T16:38:55.577Z,31.10
2018-02-10T16:41:22.508Z,30.00
2018-02-10T16:43:53.058Z,30.15
2018-02-10T16:46:19.838Z,28.90
2018-02-10T16:48:48.181Z,28.38
2018-02-10T16:51:15.088Z,27.25
2018-02-10T16:53:41.780Z,25.95
2018-02-10T16:56:12.687Z,25.45
2018-02-10T16:58:39.353Z,28.80
2018-02-10T17:01:06.943Z,26.30
2018-02-10T17:03:33.711Z,25.30
2018-02-10T17:06:05.356Z,24.77
2018-02-10T17:08:33.879Z,24.35
2018-02-10T17:11:00.595Z,27.05
2018-02-10T17:13:27.424Z,27.40
2018-02-10T17:15:58.486Z,28.55
2018-02-10T17:18:25.335Z,26.15
2018-02-10T17:20:52.588Z,28.02
2018-02-10T17:23:19.511Z,25.45
2018-02-10T17:25:46.690Z,24.20
2018-02-10T17:28:13.506Z,22.40
2018-02-10T17:30:40.835Z,19.55
2018-02-10T17:33:07.533Z,21.62
2018-02-10T17:35:34.205Z,23.00
2018-02-10T17:38:00.922Z,19.25
2018-02-10T17:40:28.233Z,20.52
2018-02-10T17:42:55.007Z,21.25
2018-02-10T17:45:21.708Z,20.95
2018-02-10T17:47:48.411Z,21.48
2018-02-10T17:50:28.055Z,20.30
2018-02-10T17:52:56.417Z,17.42
2018-02-10T17:55:23.690Z,18.50
2018-02-10T17:58:06.254Z,21.15
2018-02-10T18:00:41.010Z,19.10
2018-02-10T18:03:09.374Z,19.52
2018-02-10T18:05:39.900Z,20.67
2018-02-10T18:08:06.644Z,21.90
2018-02-10T18:10:39.509Z,21.10
2018-02-10T18:13:18.606Z,20.80
2018-02-10T18:15:46.192Z,19.83
2018-02-10T18:18:13.409Z,20.65
2018-02-10T18:20:46.298Z,19.55
2018-02-10T18:23:17.206Z,18.02
2018-02-10T18:25:44.873Z,17.87
2018-02-10T18:28:15.884Z,20.60
2018-02-10T18:30:42.581Z,18.95
2018-02-10T18:33:17.593Z,17.48
2018-02-10T18:35:52.578Z,17.50
2018-02-10T18:41:06.126Z,20.20
2018-02-10T18:43:34.738Z,17.20
2018-02-10T18:46:02.319Z,17.40
2018-02-10T18:48:42.983Z,16.70
2018-02-10T18:51:10.608Z,15.73
2018-02-10T18:53:39.889Z,15.95
2018-02-10T18:56:06.662Z,15.70
2018-02-10T18:58:39.510Z,18.73
2018-02-10T19:01:08.345Z,17.70
2018-02-10T19:03:35.573Z,15.35
2018-02-10T19:06:03.298Z,16.42
2018-02-10T19:08:30.758Z,14.98
2018-02-10T19:11:05.812Z,17.87
2018-02-10T19:13:40.369Z,15.77
2018-02-10T19:16:08.646Z,17.35
2018-02-10T19:18:43.378Z,16.05
